createdAt,value
2018-01-13T00:00:42.157Z,80.60
2018-01-13T00:01:42.145Z,86.70
2018-01-13T00:02:42.096Z,87.50
2018-01-13T00:03:42.039Z,85.40
2018-01-13T00:04:42.002Z,89.20
2018-01-13T00:05:41.963Z,89.70
2018-01-13T00:06:41.920Z,92.10
2018-01-13T00:07:41.883Z,97.80
2018-01-13T00:08:41.846Z,96.50
2018-01-13T00:09:41.806Z,93.90
2018-01-13T00:10:41.766Z,99.60
2018-01-13T00:11:41.735Z,96.00
2018-01-13T00:12:41.688Z,92.90
2018-01-13T00:13:41.649Z,98.00
2018-01-13T00:14:41.608Z,97.30
2018-01-13T00:15:41.574Z,92.10
2018-01-13T00:16:41.529Z,97.10
2018-01-13T00:17:41.489Z,97.40
2018-01-13T00:18:41.464Z,96.70
2018-01-13T00:19:41.418Z,95.10
2018-01-13T00:20:41.371Z,96.10
2018-01-13T00:21:41.332Z,93.90
2018-01-13T00:22:41.292Z,95.70
2018-01-13T00:23:41.280Z,98.50
2018-01-13T00:24:41.215Z,104.40
2018-01-13T00:25:41.173Z,107.60
2018-01-13T00:26:41.135Z,107.60
2018-01-13T00:27:41.094Z,106.20
2018-01-13T00:28:41.056Z,102.60
2018-01-13T00:29:41.022Z,105.10
2018-01-13T00:30:40.975Z,100.00
2018-01-13T00:31:40.939Z,97.10
2018-01-13T00:32:40.901Z,105.30
2018-01-13T00:33:40.858Z,103.60
2018-01-13T00:34:40.824Z,108.50
2018-01-13T00:35:40.793Z,108.40
2018-01-13T00:36:40.741Z,109.50
2018-01-13T00:37:40.702Z,109.50
2018-01-13T00:38:40.673Z,111.30
2018-01-13T00:39:40.628Z,113.10
2018-01-13T00:40:40.583Z,110.60
2018-01-13T00:41:40.544Z,109.70
2018-01-13T00:42:40.505Z,114.10
2018-01-13T00:43:40.462Z,113.30
2018-01-13T00:44:40.422Z,116.20
2018-01-13T00:45:40.384Z,115.50
2018-01-13T00:46:40.343Z,113.60
2018-01-13T00:47:40.304Z,116.60
2018-01-13T00:48:40.270Z,111.20
2018-01-13T00:49:40.234Z,114.10
2018-01-13T00:50:40.185Z,112.30
2018-01-13T00:51:40.165Z,111.90
2018-01-13T00:52:40.107Z,114.60
2018-01-13T00:53:40.071Z,113.50
2018-01-13T00:54:40.026Z,114.20
2018-01-13T00:55:39.988Z,111.90
2018-01-13T00:56:39.948Z,114.50
2018-01-13T00:57:39.906Z,116.90
2018-01-13T00:58:39.864Z,112.90
2018-01-13T00:59:39.827Z,118.70
2018-01-13T01:00:39.788Z,120.30
2018-01-13T01:01:39.750Z,117.30
2018-01-13T01:02:39.741Z,115.90
2018-01-13T01:03:39.666Z,116.50
2018-01-13T01:04:39.627Z,117.10
2018-01-13T01:05:39.603Z,116.50
2018-01-13T01:06:39.597Z,116.90
2018-01-13T01:07:39.510Z,119.20
2018-01-13T01:08:39.467Z,118.50
2018-01-13T01:09:39.429Z,115.40
2018-01-13T01:10:39.390Z,119.30
2018-01-13T01:11:39.348Z,114.90
2018-01-13T01:12:39.309Z,118.30
2018-01-13T01:13:39.268Z,119.00
2018-01-13T01:14:39.232Z,117.80
2018-01-13T01:15:39.191Z,116.40
2018-01-13T01:16:39.148Z,114.20
2018-01-13T01:17:39.109Z,113.90
2018-01-13T01:18:39.070Z,109.60
2018-01-13T01:19:39.037Z,110.50
2018-01-13T01:20:38.989Z,106.50
2018-01-13T01:21:38.956Z,103.70
2018-01-13T01:22:38.912Z,104.30
2018-01-13T01:23:38.870Z,99.60
2018-01-13T01:24:38.830Z,98.30
2018-01-13T01:25:38.791Z,99.80
2018-01-13T01:26:38.750Z,95.00
2018-01-13T01:27:38.711Z,95.70
2018-01-13T01:28:38.672Z,93.50
2018-01-13T01:29:38.631Z,94.80
2018-01-13T01:30:38.589Z,94.70
2018-01-13T01:31:38.551Z,95.70
2018-01-13T01:32:38.510Z,94.60
2018-01-13T01:33:38.472Z,102.70
2018-01-13T01:34:38.430Z,102.50
2018-01-13T01:35:38.394Z,104.00
2018-01-13T01:36:38.353Z,102.10
2018-01-13T01:37:38.343Z,102.10
2018-01-13T01:38:38.275Z,102.10
2018-01-13T01:39:38.234Z,103.60
2018-01-13T01:40:38.194Z,99.50
2018-01-13T01:41:38.153Z,101.40
2018-01-13T01:42:38.111Z,103.00
2018-01-13T01:43:38.080Z,112.60
2018-01-13T01:44:38.035Z,109.70
2018-01-13T01:45:37.996Z,108.80
2018-01-13T01:46:37.953Z,110.50
2018-01-13T01:47:37.916Z,113.00
2018-01-13T01:48:37.873Z,111.30
2018-01-13T01:49:37.834Z,113.50
2018-01-13T01:50:37.796Z,115.80
2018-01-13T01:51:37.754Z,111.50
2018-01-13T01:52:37.714Z,112.40
2018-01-13T01:53:37.674Z,116.70
2018-01-13T01:54:37.634Z,118.60
2018-01-13T01:55:37.594Z,123.50
2018-01-13T01:56:37.556Z,124.40
2018-01-13T01:57:37.515Z,120.70
2018-01-13T01:58:37.475Z,120.20
2018-01-13T01:59:37.438Z,120.00
2018-01-13T02:00:37.400Z,118.70
2018-01-13T02:01:37.386Z,115.10
2018-01-13T02:02:37.326Z,114.50
2018-01-13T02:03:37.308Z,115.60
2018-01-13T02:04:37.235Z,116.20
2018-01-13T02:05:37.196Z,113.60
2018-01-13T02:06:37.154Z,113.80
2018-01-13T02:07:37.115Z,115.50
2018-01-13T02:08:37.077Z,112.10
2018-01-13T02:09:37.034Z,111.30
2018-01-13T02:10:36.996Z,108.50
2018-01-13T02:11:36.954Z,108.40
2018-01-13T02:12:36.916Z,107.40
2018-01-13T02:13:36.876Z,108.30
2018-01-13T02:14:36.837Z,101.70
2018-01-13T02:15:36.796Z,103.60
2018-01-13T02:16:36.760Z,104.50
2018-01-13T02:17:36.717Z,106.90
2018-01-13T02:18:36.675Z,107.40
2018-01-13T02:19:36.637Z,104.90
2018-01-13T02:20:36.598Z,107.20
2018-01-13T02:21:36.559Z,107.50
2018-01-13T02:22:36.517Z,104.90
2018-01-13T02:23:36.479Z,105.60
2018-01-13T02:24:36.437Z,106.10
2018-01-13T02:25:36.399Z,102.50
2018-01-13T02:26:36.356Z,105.50
2018-01-13T02:27:36.340Z,106.80
2018-01-13T02:28:36.282Z,107.80
2018-01-13T02:29:36.272Z,104.40
2018-01-13T02:30:36.210Z,105.10
2018-01-13T02:31:36.182Z,104.40
2018-01-13T02:32:36.121Z,104.60
2018-01-13T02:33:36.082Z,105.30
2018-01-13T02:34:36.042Z,102.30
2018-01-13T02:35:36.003Z,99.40
2018-01-13T02:36:35.965Z,101.00
2018-01-13T02:37:35.920Z,99.00
2018-01-13T02:38:35.883Z,97.50
2018-01-13T02:39:35.844Z,95.90
2018-01-13T02:40:35.804Z,98.70
2018-01-13T02:41:35.764Z,97.40
2018-01-13T02:42:35.728Z,95.50
2018-01-13T02:43:35.686Z,95.60
2018-01-13T02:44:35.647Z,96.00
2018-01-13T02:45:35.606Z,95.00
2018-01-13T02:46:35.566Z,95.60
2018-01-13T02:47:35.525Z,96.80
2018-01-13T02:48:35.485Z,99.80
2018-01-13T02:49:35.447Z,101.90
2018-01-13T02:50:35.407Z,100.50
2018-01-13T02:51:35.368Z,101.40
2018-01-13T02:52:35.328Z,100.10
2018-01-13T02:53:35.314Z,103.20
2018-01-13T02:54:35.248Z,103.30
2018-01-13T02:55:35.210Z,101.60
2018-01-13T02:56:35.171Z,98.00
2018-01-13T02:57:35.128Z,96.20
2018-01-13T02:58:35.088Z,98.70
2018-01-13T02:59:35.052Z,94.90
2018-01-13T03:00:35.018Z,97.70
2018-01-13T03:01:34.972Z,96.70
2018-01-13T03:02:34.935Z,99.30
2018-01-13T03:03:34.891Z,95.60
2018-01-13T03:04:34.851Z,97.50
2018-01-13T03:05:34.809Z,100.20
2018-01-13T03:06:34.771Z,101.00
2018-01-13T03:07:34.734Z,97.90
2018-01-13T03:08:34.695Z,99.70
2018-01-13T03:09:34.652Z,99.30
2018-01-13T03:10:34.614Z,98.40
2018-01-13T03:11:34.571Z,95.60
2018-01-13T03:12:34.534Z,93.30
2018-01-13T03:13:34.493Z,95.60
2018-01-13T03:14:34.455Z,96.90
2018-01-13T03:15:34.416Z,92.70
2018-01-13T03:16:34.384Z,94.30
2018-01-13T03:17:34.334Z,97.60
2018-01-13T03:18:34.323Z,93.60
2018-01-13T03:19:34.256Z,94.10
2018-01-13T03:20:34.218Z,97.10
2018-01-13T03:21:34.175Z,95.80
2018-01-13T03:22:34.137Z,95.70
2018-01-13T03:23:34.100Z,96.10
2018-01-13T03:24:34.058Z,96.90
2018-01-13T03:25:34.027Z,95.20
2018-01-13T03:26:33.981Z,96.30
2018-01-13T03:27:33.941Z,98.40
2018-01-13T03:28:33.927Z,94.70
2018-01-13T03:29:33.859Z,96.40
2018-01-13T03:30:33.822Z,96.20
2018-01-13T03:31:33.786Z,97.60
2018-01-13T03:32:33.746Z,95.70
2018-01-13T03:33:33.699Z,93.20
2018-01-13T03:34:33.662Z,93.70
2018-01-13T03:35:33.620Z,93.30
2018-01-13T03:36:33.605Z,95.30
2018-01-13T03:37:33.549Z,93.70
2018-01-13T03:38:33.501Z,91.10
2018-01-13T03:39:33.465Z,92.00
2018-01-13T03:40:33.423Z,92.60
2018-01-13T03:41:33.381Z,93.60
2018-01-13T03:42:33.343Z,92.80
2018-01-13T03:43:33.306Z,94.50
2018-01-13T03:44:33.275Z,90.30
2018-01-13T03:45:33.225Z,91.50
2018-01-13T03:46:33.183Z,90.20
2018-01-13T03:47:33.145Z,92.80
2018-01-13T03:48:33.106Z,91.90
2018-01-13T03:49:33.065Z,91.50
2018-01-13T03:50:33.024Z,88.60
2018-01-13T03:51:33.002Z,90.20
2018-01-13T03:52:32.946Z,89.10
2018-01-13T03:53:32.906Z,89.60
2018-01-13T03:54:32.865Z,88.10
2018-01-13T03:55:32.854Z,90.30
2018-01-13T03:56:32.812Z,86.20
2018-01-13T03:57:32.746Z,85.60
2018-01-13T03:58:32.708Z,81.40
2018-01-13T03:59:32.666Z,85.20
2018-01-13T04:00:32.654Z,81.90
2018-01-13T04:01:32.588Z,81.80
2018-01-13T04:02:32.558Z,80.70
2018-01-13T04:03:32.510Z,82.10
2018-01-13T04:04:32.467Z,84.00
2018-01-13T04:05:32.429Z,83.20
2018-01-13T04:06:32.388Z,79.30
2018-01-13T04:07:32.353Z,81.80
2018-01-13T04:08:32.317Z,80.20
2018-01-13T04:09:32.270Z,80.40
2018-01-13T04:10:32.231Z,80.70
2018-01-13T04:11:32.191Z,78.70
2018-01-13T04:12:32.153Z,82.20
2018-01-13T04:13:32.114Z,81.80
2018-01-13T04:14:32.073Z,83.40
2018-01-13T04:15:32.034Z,79.50
2018-01-13T04:16:31.994Z,82.00
2018-01-13T04:17:31.952Z,80.20
2018-01-13T04:18:31.916Z,80.90
2018-01-13T04:19:31.879Z,79.20
2018-01-13T04:20:31.836Z,82.60
2018-01-13T04:21:31.794Z,79.90
2018-01-13T04:22:31.755Z,80.60
2018-01-13T04:23:31.748Z,79.40
2018-01-13T04:24:31.677Z,78.60
2018-01-13T04:25:31.636Z,77.40
2018-01-13T04:26:31.597Z,78.90
2018-01-13T04:27:31.559Z,79.50
2018-01-13T04:28:31.545Z,79.40
2018-01-13T04:29:31.494Z,78.40
2018-01-13T04:30:31.439Z,78.10
2018-01-13T04:31:31.400Z,81.00
2018-01-13T04:32:31.361Z,76.70
2018-01-13T04:33:31.319Z,78.60
2018-01-13T04:34:31.280Z,80.90
2018-01-13T04:35:31.241Z,83.00
2018-01-13T04:36:31.204Z,83.60
2018-01-13T04:37:31.160Z,85.90
2018-01-13T04:38:31.122Z,86.80
2018-01-13T04:39:31.085Z,87.10
2018-01-13T04:40:31.045Z,88.00
2018-01-13T04:41:31.003Z,90.20
2018-01-13T04:42:30.963Z,86.80
2018-01-13T04:43:31.417Z,89.30
2018-01-13T04:44:30.884Z,88.90
2018-01-13T04:45:30.846Z,89.60
2018-01-13T04:46:31.417Z,90.60
2018-01-13T04:47:30.767Z,91.40
2018-01-13T04:48:30.727Z,94.80
2018-01-13T04:49:30.684Z,91.10
2018-01-13T04:50:30.646Z,93.70
2018-01-13T04:51:30.606Z,97.40
2018-01-13T04:52:30.563Z,97.10
2018-01-13T04:53:30.526Z,95.90
2018-01-13T04:54:30.488Z,92.50
2018-01-13T04:55:30.446Z,94.20
2018-01-13T04:56:30.405Z,90.40
2018-01-13T04:57:30.367Z,91.30
2018-01-13T04:58:30.327Z,91.40
2018-01-13T04:59:30.287Z,90.70
2018-01-13T05:00:30.246Z,93.30
2018-01-13T05:01:30.204Z,95.60
2018-01-13T05:02:30.163Z,90.80
2018-01-13T05:03:30.127Z,93.40
2018-01-13T05:04:30.085Z,93.80
2018-01-13T05:05:30.046Z,97.00
2018-01-13T05:06:30.008Z,93.40
2018-01-13T05:07:29.966Z,93.50
2018-01-13T05:08:29.924Z,94.40
2018-01-13T05:09:29.885Z,91.10
2018-01-13T05:10:29.845Z,91.70
2018-01-13T05:11:29.828Z,94.30
2018-01-13T05:12:29.764Z,93.60
2018-01-13T05:13:29.726Z,95.90
2018-01-13T05:14:29.683Z,93.10
2018-01-13T05:15:29.647Z,93.10
2018-01-13T05:16:29.624Z,93.10
2018-01-13T05:17:29.565Z,91.40
2018-01-13T05:18:29.523Z,91.20
2018-01-13T05:19:29.503Z,87.70
2018-01-13T05:20:29.444Z,85.70
2018-01-13T05:21:29.402Z,87.00
2018-01-13T05:22:29.364Z,83.90
2018-01-13T05:23:29.324Z,87.70
2018-01-13T05:24:29.293Z,83.00
2018-01-13T05:25:29.245Z,81.10
2018-01-13T05:26:29.203Z,81.10
2018-01-13T05:27:29.163Z,81.20
2018-01-13T05:28:29.124Z,78.10
2018-01-13T05:29:29.086Z,80.10
2018-01-13T05:30:29.045Z,81.00
2018-01-13T05:31:29.007Z,80.00
2018-01-13T05:32:28.980Z,78.30
2018-01-13T05:33:28.927Z,75.00
2018-01-13T05:34:28.885Z,72.60
2018-01-13T05:35:28.843Z,72.80
2018-01-13T05:36:28.806Z,67.50
2018-01-13T05:37:28.768Z,68.70
2018-01-13T05:38:28.727Z,65.70
2018-01-13T05:39:28.686Z,62.50
2018-01-13T05:40:28.646Z,61.00
2018-01-13T05:41:28.606Z,60.30
2018-01-13T05:42:28.567Z,61.60
2018-01-13T05:43:28.529Z,64.00
2018-01-13T05:44:28.487Z,63.20
2018-01-13T05:45:28.449Z,63.60
2018-01-13T05:46:28.407Z,62.20
2018-01-13T05:47:28.368Z,63.40
2018-01-13T05:48:28.330Z,65.00
2018-01-13T05:49:28.288Z,66.90
2018-01-13T05:50:28.250Z,64.00
2018-01-13T05:51:28.210Z,64.10
2018-01-13T05:52:28.171Z,60.70
2018-01-13T05:53:28.152Z,60.40
2018-01-13T05:54:28.092Z,61.20
2018-01-13T05:55:28.052Z,57.40
2018-01-13T05:56:28.014Z,58.30
2018-01-13T05:57:27.973Z,56.10
2018-01-13T05:58:27.933Z,54.70
2018-01-13T05:59:27.892Z,56.30
2018-01-13T06:00:27.853Z,54.30
2018-01-13T06:01:27.812Z,55.60
2018-01-13T06:02:27.773Z,55.50
2018-01-13T06:03:27.734Z,52.00
2018-01-13T06:04:27.694Z,52.90
2018-01-13T06:05:27.653Z,54.80
2018-01-13T06:06:27.648Z,51.60
2018-01-13T06:07:27.575Z,50.30
2018-01-13T06:08:27.537Z,51.90
2018-01-13T06:09:27.495Z,53.40
2018-01-13T06:10:27.456Z,50.70
2018-01-13T06:11:27.416Z,49.10
2018-01-13T06:12:27.376Z,47.40
2018-01-13T06:13:27.336Z,46.70
2018-01-13T06:14:27.302Z,47.70
2018-01-13T06:15:27.256Z,49.00
2018-01-13T06:16:27.217Z,48.10
2018-01-13T06:17:27.177Z,46.40
2018-01-13T06:18:27.138Z,46.80
2018-01-13T06:19:27.099Z,46.30
2018-01-13T06:20:27.060Z,45.50
2018-01-13T06:21:27.020Z,45.10
2018-01-13T06:22:26.979Z,42.50
2018-01-13T06:23:26.940Z,43.90
2018-01-13T06:24:26.900Z,45.00
2018-01-13T06:25:26.862Z,42.10
2018-01-13T06:26:26.821Z,44.40
2018-01-13T06:27:26.783Z,44.30
2018-01-13T06:28:26.762Z,44.10
2018-01-13T06:29:26.705Z,43.40
2018-01-13T06:30:26.659Z,42.10
2018-01-13T06:31:26.622Z,41.80
2018-01-13T06:32:26.582Z,41.60
2018-01-13T06:33:26.542Z,41.30
2018-01-13T06:34:26.506Z,39.70
2018-01-13T06:35:26.465Z,39.90
2018-01-13T06:36:26.425Z,43.00
2018-01-13T06:37:26.385Z,42.30
2018-01-13T06:38:26.348Z,41.40
2018-01-13T06:39:26.306Z,40.20
2018-01-13T06:40:26.266Z,42.10
2018-01-13T06:41:26.228Z,40.70
2018-01-13T06:42:26.187Z,40.80
2018-01-13T06:43:26.148Z,41.20
2018-01-13T06:44:26.109Z,40.50
2018-01-13T06:45:26.068Z,38.80
2018-01-13T06:46:26.033Z,41.40
2018-01-13T06:47:25.991Z,40.30
2018-01-13T06:48:25.952Z,40.60
2018-01-13T06:49:25.911Z,38.60
2018-01-13T06:50:25.872Z,41.00
2018-01-13T06:51:25.834Z,42.00
2018-01-13T06:52:25.792Z,40.80
2018-01-13T06:53:25.754Z,42.20
2018-01-13T06:54:25.712Z,40.60
2018-01-13T06:55:25.680Z,42.10
2018-01-13T06:56:25.652Z,42.30
2018-01-13T06:57:25.595Z,41.20
2018-01-13T06:58:25.556Z,42.00
2018-01-13T06:59:25.515Z,41.30
2018-01-13T07:00:25.475Z,42.50
2018-01-13T07:01:25.435Z,39.60
2018-01-13T07:02:25.399Z,38.00
2018-01-13T07:03:25.372Z,37.20
2018-01-13T07:04:25.317Z,37.30
2018-01-13T07:05:25.293Z,34.80
2018-01-13T07:06:25.246Z,34.30
2018-01-13T07:07:25.198Z,35.30
2018-01-13T07:08:25.159Z,35.90
2018-01-13T07:09:25.117Z,35.10
2018-01-13T07:10:25.079Z,34.20
2018-01-13T07:11:25.038Z,34.90
2018-01-13T07:12:25.002Z,36.70
2018-01-13T07:13:24.960Z,36.80
2018-01-13T07:14:24.923Z,37.40
2018-01-13T07:15:24.881Z,35.20
2018-01-13T07:16:24.841Z,34.90
2018-01-13T07:17:24.803Z,36.50
2018-01-13T07:18:24.767Z,36.40
2018-01-13T07:19:24.739Z,35.70
2018-01-13T07:20:24.684Z,37.60
2018-01-13T07:21:24.641Z,37.60
2018-01-13T07:22:24.606Z,36.70
2018-01-13T07:23:24.567Z,35.70
2018-01-13T07:24:24.524Z,36.40
2018-01-13T07:25:24.485Z,34.70
2018-01-13T07:26:24.448Z,35.70
2018-01-13T07:27:24.406Z,37.30
2018-01-13T07:28:24.454Z,36.90
2018-01-13T07:29:24.325Z,37.30
2018-01-13T07:30:24.287Z,36.10
2018-01-13T07:31:24.248Z,35.20
2018-01-13T07:32:24.211Z,36.90
2018-01-13T07:33:24.170Z,36.40
2018-01-13T07:34:24.129Z,37.60
2018-01-13T07:35:24.090Z,37.30
2018-01-13T07:36:24.052Z,37.90
2018-01-13T07:37:24.012Z,38.40
2018-01-13T07:38:23.973Z,37.40
2018-01-13T07:39:23.932Z,35.30
2018-01-13T07:40:23.893Z,36.60
2018-01-13T07:41:23.854Z,36.90
2018-01-13T07:42:23.813Z,36.80
2018-01-13T07:43:23.776Z,36.00
2018-01-13T07:44:23.736Z,36.50
2018-01-13T07:45:23.696Z,37.10
2018-01-13T07:46:23.657Z,39.20
2018-01-13T07:47:23.617Z,37.00
2018-01-13T07:48:23.575Z,38.80
2018-01-13T07:49:23.542Z,36.70
2018-01-13T07:50:23.500Z,38.10
2018-01-13T07:51:23.458Z,36.40
2018-01-13T07:52:23.424Z,34.80
2018-01-13T07:53:23.378Z,35.30
2018-01-13T07:54:23.346Z,35.00
2018-01-13T07:55:23.357Z,34.30
2018-01-13T07:56:23.265Z,35.70
2018-01-13T07:57:23.222Z,35.10
2018-01-13T07:58:23.183Z,35.10
2018-01-13T07:59:23.163Z,36.20
2018-01-13T08:00:23.103Z,36.80
2018-01-13T08:01:23.063Z,35.80
2018-01-13T08:02:23.023Z,35.90
2018-01-13T08:03:22.985Z,35.40
2018-01-13T08:04:22.943Z,35.00
2018-01-13T08:05:22.904Z,33.90
2018-01-13T08:06:22.865Z,34.20
2018-01-13T08:07:22.825Z,34.50
2018-01-13T08:08:22.787Z,35.20
2018-01-13T08:09:22.746Z,33.40
2018-01-13T08:10:22.708Z,33.50
2018-01-13T08:11:22.667Z,31.90
2018-01-13T08:12:22.631Z,34.50
2018-01-13T08:13:22.589Z,34.00
2018-01-13T08:14:22.551Z,33.40
2018-01-13T08:15:22.510Z,34.70
2018-01-13T08:16:22.471Z,34.20
2018-01-13T08:17:22.430Z,35.60
2018-01-13T08:18:22.392Z,37.00
2018-01-13T08:19:22.352Z,34.90
2018-01-13T08:20:22.312Z,34.10
2018-01-13T08:21:22.272Z,34.20
2018-01-13T08:22:22.233Z,30.50
2018-01-13T08:23:22.195Z,34.00
2018-01-13T08:24:22.155Z,35.10
2018-01-13T08:25:22.117Z,33.10
2018-01-13T08:26:22.078Z,36.10
2018-01-13T08:27:22.036Z,33.10
2018-01-13T08:28:21.994Z,34.70
2018-01-13T08:29:21.954Z,33.30
2018-01-13T08:30:21.918Z,34.00
2018-01-13T08:31:21.875Z,33.20
2018-01-13T08:32:21.839Z,33.90
2018-01-13T08:33:21.798Z,34.90
2018-01-13T08:34:21.759Z,33.10
2018-01-13T08:35:21.722Z,33.00
2018-01-13T08:36:21.681Z,32.80
2018-01-13T08:37:21.643Z,32.20
2018-01-13T08:38:21.601Z,34.20
2018-01-13T08:39:21.561Z,36.50
2018-01-13T08:40:21.523Z,33.60
2018-01-13T08:41:21.481Z,33.10
2018-01-13T08:42:21.443Z,35.20
2018-01-13T08:43:21.408Z,36.50
2018-01-13T08:44:21.365Z,37.30
2018-01-13T08:45:21.355Z,36.60
2018-01-13T08:46:21.286Z,37.10
2018-01-13T08:47:21.247Z,36.90
2018-01-13T08:48:21.209Z,37.90
2018-01-13T08:49:21.216Z,36.90
2018-01-13T08:50:21.127Z,39.20
2018-01-13T08:51:21.087Z,37.20
2018-01-13T08:52:21.060Z,38.70
2018-01-13T08:53:21.009Z,36.60
2018-01-13T08:54:20.969Z,37.80
2018-01-13T08:55:20.930Z,36.80
2018-01-13T08:56:20.890Z,39.10
2018-01-13T08:57:20.852Z,39.00
2018-01-13T08:58:20.809Z,38.00
2018-01-13T08:59:20.771Z,37.00
2018-01-13T09:00:20.731Z,39.30
2018-01-13T09:01:20.691Z,31.30
2018-01-13T09:02:20.650Z,35.10
2018-01-13T09:03:20.622Z,37.10
2018-01-13T09:04:20.572Z,36.50
2018-01-13T09:05:20.534Z,34.00
2018-01-13T09:06:20.494Z,38.50
2018-01-13T09:07:20.456Z,37.70
2018-01-13T09:08:20.424Z,35.20
2018-01-13T09:09:20.375Z,36.80
2018-01-13T09:10:20.333Z,34.70
2018-01-13T09:11:20.296Z,37.10
2018-01-13T09:12:20.257Z,35.10
2018-01-13T09:13:20.217Z,33.60
2018-01-13T09:14:20.177Z,32.00
2018-01-13T09:15:20.139Z,33.80
2018-01-13T09:16:20.099Z,33.50
2018-01-13T09:17:20.060Z,33.70
2018-01-13T09:18:20.038Z,32.80
2018-01-13T09:19:20.001Z,29.10
2018-01-13T09:20:19.961Z,26.60
2018-01-13T09:21:19.933Z,28.20
2018-01-13T09:22:19.861Z,29.20
2018-01-13T09:23:19.822Z,27.60
2018-01-13T09:24:19.785Z,22.00
2018-01-13T09:25:19.741Z,27.10
2018-01-13T09:26:19.713Z,25.40
2018-01-13T09:27:19.662Z,24.80
2018-01-13T09:28:19.625Z,26.10
2018-01-13T09:29:19.582Z,26.20
2018-01-13T09:30:19.543Z,26.00
2018-01-13T09:31:19.504Z,21.40
2018-01-13T09:32:19.465Z,23.70
2018-01-13T09:33:19.424Z,23.90
2018-01-13T09:34:19.385Z,25.20
2018-01-13T09:35:19.349Z,24.60
2018-01-13T09:36:19.308Z,27.10
2018-01-13T09:37:19.267Z,28.40
2018-01-13T09:38:19.228Z,28.30
2018-01-13T09:39:19.188Z,28.00
2018-01-13T09:40:19.148Z,26.10
2018-01-13T09:41:19.109Z,27.10
2018-01-13T09:42:19.069Z,26.70
2018-01-13T09:43:19.030Z,28.40
2018-01-13T09:44:18.990Z,28.20
2018-01-13T09:45:18.981Z,26.50
2018-01-13T09:46:18.910Z,25.70
2018-01-13T09:47:18.872Z,25.80
2018-01-13T09:48:18.833Z,24.10
2018-01-13T09:49:18.795Z,25.20
2018-01-13T09:50:18.752Z,25.60
2018-01-13T09:51:18.712Z,25.60
2018-01-13T09:52:18.690Z,25.80
2018-01-13T09:53:18.636Z,27.40
2018-01-13T09:54:18.596Z,25.90
2018-01-13T09:55:18.560Z,26.30
2018-01-13T09:56:18.517Z,26.70
2018-01-13T09:57:18.481Z,22.80
2018-01-13T09:58:18.437Z,27.00
2018-01-13T09:59:18.399Z,26.40
2018-01-13T10:00:18.358Z,27.40
2018-01-13T10:01:18.322Z,26.10
2018-01-13T10:02:18.277Z,23.80
2018-01-13T10:03:18.241Z,24.30
2018-01-13T10:04:18.198Z,25.60
2018-01-13T10:05:18.160Z,26.30
2018-01-13T10:06:18.121Z,26.30
2018-01-13T10:07:18.098Z,25.30
2018-01-13T10:08:18.042Z,22.70
2018-01-13T10:09:18.002Z,22.10
2018-01-13T10:10:17.959Z,18.90
2018-01-13T10:11:17.925Z,17.30
2018-01-13T10:12:17.881Z,17.70
2018-01-13T10:13:17.844Z,18.80
2018-01-13T10:14:17.805Z,18.50
2018-01-13T10:15:17.761Z,18.10
2018-01-13T10:16:17.724Z,18.70
2018-01-13T10:17:17.684Z,18.20
2018-01-13T10:18:17.645Z,19.40
2018-01-13T10:19:17.604Z,19.00
2018-01-13T10:20:17.566Z,18.20
2018-01-13T10:21:17.525Z,18.90
2018-01-13T10:22:17.488Z,18.60
2018-01-13T10:23:17.448Z,17.80
2018-01-13T10:24:17.410Z,18.90
2018-01-13T10:25:17.367Z,19.70
2018-01-13T10:26:17.327Z,18.10
2018-01-13T10:27:17.288Z,17.00
2018-01-13T10:28:17.252Z,18.00
2018-01-13T10:29:17.208Z,19.00
2018-01-13T10:30:17.176Z,14.60
2018-01-13T10:31:17.150Z,15.50
2018-01-13T10:32:17.092Z,15.20
2018-01-13T10:33:17.049Z,15.30
2018-01-13T10:34:17.041Z,15.00
2018-01-13T10:35:16.972Z,14.20
2018-01-13T10:36:16.934Z,13.50
2018-01-13T10:37:16.894Z,13.30
2018-01-13T10:38:16.853Z,14.90
2018-01-13T10:39:16.811Z,12.10
2018-01-13T10:40:16.821Z,14.60
2018-01-13T10:41:16.733Z,12.50
2018-01-13T10:42:16.694Z,13.50
2018-01-13T10:43:16.653Z,14.80
2018-01-13T10:44:16.616Z,15.40
2018-01-13T10:45:16.574Z,15.10
2018-01-13T10:46:16.534Z,15.90
2018-01-13T10:47:16.498Z,18.20
2018-01-13T10:48:16.456Z,16.70
2018-01-13T10:49:16.415Z,17.00
2018-01-13T10:50:16.375Z,14.60
2018-01-13T10:51:16.337Z,14.20
2018-01-13T10:52:16.298Z,16.00
2018-01-13T10:53:16.257Z,13.80
2018-01-13T10:54:16.251Z,15.30
2018-01-13T10:55:16.178Z,16.30
2018-01-13T10:56:16.140Z,17.00
2018-01-13T10:57:16.098Z,17.10
2018-01-13T10:58:16.057Z,16.50
2018-01-13T10:59:16.022Z,16.20
2018-01-13T11:00:15.983Z,16.30
2018-01-13T11:01:15.968Z,18.70
2018-01-13T11:02:15.901Z,17.30
2018-01-13T11:03:15.859Z,16.80
2018-01-13T11:04:15.822Z,16.60
2018-01-13T11:05:15.782Z,18.60
2018-01-13T11:06:15.768Z,16.00
2018-01-13T11:07:15.704Z,17.10
2018-01-13T11:08:15.666Z,17.90
2018-01-13T11:09:15.624Z,18.10
2018-01-13T11:10:15.584Z,17.00
2018-01-13T11:11:15.545Z,18.90
2018-01-13T11:12:15.505Z,16.70
2018-01-13T11:13:15.466Z,15.80
2018-01-13T11:14:15.427Z,15.40
2018-01-13T11:15:15.388Z,15.70
2018-01-13T11:16:15.349Z,17.80
2018-01-13T11:17:15.309Z,17.50
2018-01-13T11:18:15.269Z,19.30
2018-01-13T11:19:15.231Z,18.20
2018-01-13T11:20:15.193Z,18.10
2018-01-13T11:21:15.154Z,15.30
2018-01-13T11:22:15.116Z,16.50
2018-01-13T11:23:15.076Z,16.90
2018-01-13T11:24:15.037Z,16.40
2018-01-13T11:25:14.997Z,16.60
2018-01-13T11:26:14.958Z,18.10
2018-01-13T11:27:14.920Z,16.40
2018-01-13T11:28:14.880Z,16.20
2018-01-13T11:29:14.849Z,15.80
2018-01-13T11:30:14.806Z,15.40
2018-01-13T11:31:14.767Z,17.70
2018-01-13T11:32:14.727Z,17.50
2018-01-13T11:33:14.691Z,15.90
2018-01-13T11:34:14.651Z,14.50
2018-01-13T11:35:14.613Z,17.70
2018-01-13T11:36:14.576Z,17.10
2018-01-13T11:37:14.535Z,16.40
2018-01-13T11:38:14.497Z,17.60
2018-01-13T11:39:14.461Z,17.50
2018-01-13T11:40:14.425Z,16.30
2018-01-13T11:41:14.386Z,17.80
2018-01-13T11:42:14.347Z,16.10
2018-01-13T11:43:14.309Z,16.40
2018-01-13T11:44:14.272Z,17.20
2018-01-13T11:45:14.232Z,16.20
2018-01-13T11:46:14.199Z,15.30
2018-01-13T11:47:14.162Z,15.10
2018-01-13T11:48:14.123Z,17.20
2018-01-13T11:49:14.088Z,15.60
2018-01-13T11:50:14.050Z,17.20
2018-01-13T11:51:14.013Z,17.60
2018-01-13T11:52:13.977Z,17.00
2018-01-13T11:53:13.941Z,17.20
2018-01-13T11:54:13.903Z,16.70
2018-01-13T11:55:13.866Z,15.70
2018-01-13T11:56:13.837Z,15.20
2018-01-13T11:57:13.793Z,14.40
2018-01-13T11:58:13.761Z,15.60
2018-01-13T11:59:13.723Z,16.30
2018-01-13T12:00:13.689Z,16.70
2018-01-13T12:01:13.652Z,16.50
2018-01-13T12:02:13.616Z,15.30
2018-01-13T12:03:13.576Z,16.10
2018-01-13T12:04:13.547Z,16.40
2018-01-13T12:05:13.509Z,17.00
2018-01-13T12:06:13.478Z,18.10
2018-01-13T12:07:13.440Z,17.60
2018-01-13T12:08:13.409Z,16.20
2018-01-13T12:09:13.371Z,17.90
2018-01-13T12:10:13.336Z,16.20
2018-01-13T12:11:13.302Z,17.50
2018-01-13T12:12:13.269Z,17.80
2018-01-13T12:13:13.232Z,17.40
2018-01-13T12:14:13.197Z,16.70
2018-01-13T12:15:13.167Z,14.70
2018-01-13T12:16:13.126Z,15.40
2018-01-13T12:17:13.094Z,15.00
2018-01-13T12:18:13.057Z,16.80
2018-01-13T12:19:13.023Z,15.50
2018-01-13T12:20:12.991Z,16.50
2018-01-13T12:21:12.953Z,15.70
2018-01-13T12:22:12.919Z,16.30
2018-01-13T12:23:12.888Z,17.60
2018-01-13T12:24:12.853Z,16.90
2018-01-13T12:25:12.818Z,17.40
2018-01-13T12:26:12.779Z,16.80
2018-01-13T12:27:12.745Z,16.40
2018-01-13T12:28:12.715Z,15.20
2018-01-13T12:29:12.672Z,15.90
2018-01-13T12:30:12.634Z,15.90
2018-01-13T12:31:12.598Z,16.30
2018-01-13T12:32:12.567Z,17.20
2018-01-13T12:33:12.529Z,17.90
2018-01-13T12:34:12.490Z,16.10
2018-01-13T12:35:12.454Z,18.00
2018-01-13T12:36:12.414Z,15.20
2018-01-13T12:37:12.381Z,15.00
2018-01-13T12:38:12.339Z,14.10
2018-01-13T12:39:12.304Z,16.10
2018-01-13T12:40:12.268Z,13.60
2018-01-13T12:41:12.231Z,12.00
2018-01-13T12:42:12.196Z,12.70
2018-01-13T12:43:12.160Z,13.60
2018-01-13T12:44:12.120Z,12.70
2018-01-13T12:45:12.102Z,12.00
2018-01-13T12:46:12.071Z,11.80
2018-01-13T12:47:12.007Z,12.00
2018-01-13T12:48:11.969Z,11.00